Sainte-Thecle, Canada
Current Conditions -  °F | °C
As of 6:00 AM on Friday 31 Oct 2014 (Local Time) from CYRQ Reporting Station
Overcast Overcast  
Wind Chill: 36°   Ceiling: 5000
Heat Index: 36°   Visibility: 9mi
Dew Point: 28°   Wind: 3mph
Humidity: 75%   Direction: 290°WNW
Pressure: 30.03"   Gusts: NA
Location:  46.8°N, 72.5°W
Report Text: CYRQ 311000Z AUTO 29003KT 9SM OVC050 02/M02 A3003 RMK SLP172
Loading
Personal Weather Stations






























Interactive Weather Map
Tropical Storm Tracking
New forecast layout! Learn more

10-Day Weather Forecast

Advertisements
Track Severe Weather on mobile